sensor_id;sensor_type;location;lat;lon;timestamp;P1;durP1;ratioP1;P2;durP2;ratioP2
73251;SDS011;61473;50.834;4.552;2022-09-01T00:01:03;4.57;;;2.05;;
73251;SDS011;61473;50.834;4.552;2022-09-01T00:03:33;6.28;;;2.65;;
73251;SDS011;61473;50.834;4.552;2022-09-01T00:05:59;6.78;;;2.40;;
73251;SDS011;61473;50.834;4.552;2022-09-01T00:08:24;5.25;;;2.22;;
73251;SDS011;61473;50.834;4.552;2022-09-01T00:10:50;5.03;;;2.20;;
73251;SDS011;61473;50.834;4.552;2022-09-01T00:13:16;2.15;;;1.75;;
73251;SDS011;61473;50.834;4.552;2022-09-01T00:15:42;3.55;;;2.50;;
73251;SDS011;61473;50.834;4.552;2022-09-01T00:18:08;4.55;;;2.53;;
73251;SDS011;61473;50.834;4.552;2022-09-01T00:20:34;3.42;;;2.28;;
73251;SDS011;61473;50.834;4.552;2022-09-01T00:22:59;4.60;;;2.55;;
73251;SDS011;61473;50.834;4.552;2022-09-01T00:25:26;2.80;;;2.50;;
73251;SDS011;61473;50.834;4.552;2022-09-01T00:27:52;4.22;;;2.47;;
73251;SDS011;61473;50.834;4.552;2022-09-01T00:30:19;2.95;;;2.42;;
73251;SDS011;61473;50.834;4.552;2022-09-01T00:32:45;4.53;;;2.65;;
73251;SDS011;61473;50.834;4.552;2022-09-01T00:35:15;4.47;;;2.30;;
73251;SDS011;61473;50.834;4.552;2022-09-01T00:37:41;2.55;;;2.35;;
73251;SDS011;61473;50.834;4.552;2022-09-01T00:40:08;7.72;;;2.30;;
73251;SDS011;61473;50.834;4.552;2022-09-01T00:42:35;3.33;;;2.13;;
73251;SDS011;61473;50.834;4.552;2022-09-01T00:45:02;3.47;;;2.00;;
73251;SDS011;61473;50.834;4.552;2022-09-01T00:47:29;6.53;;;2.88;;
73251;SDS011;61473;50.834;4.552;2022-09-01T00:49:54;2.75;;;2.10;;
73251;SDS011;61473;50.834;4.552;2022-09-01T00:52:53;4.20;;;2.20;;
73251;SDS011;61473;50.834;4.552;2022-09-01T00:55:17;7.20;;;2.42;;
73251;SDS011;61473;50.834;4.552;2022-09-01T00:57:47;5.97;;;3.40;;
73251;SDS011;61473;50.834;4.552;2022-09-01T01:02:41;7.22;;;2.60;;
73251;SDS011;61473;50.834;4.552;2022-09-01T01:05:08;4.07;;;2.10;;
73251;SDS011;61473;50.834;4.552;2022-09-01T01:07:35;7.03;;;3.03;;
73251;SDS011;61473;50.834;4.552;2022-09-01T01:10:07;4.07;;;2.58;;
73251;SDS011;61473;50.834;4.552;2022-09-01T01:12:36;3.63;;;2.17;;
73251;SDS011;61473;50.834;4.552;2022-09-01T01:15:05;4.97;;;2.67;;
73251;SDS011;61473;50.834;4.552;2022-09-01T01:17:32;5.05;;;2.72;;
73251;SDS011;61473;50.834;4.552;2022-09-01T01:20:01;6.07;;;2.40;;
73251;SDS011;61473;50.834;4.552;2022-09-01T01:25:54;3.95;;;2.60;;
73251;SDS011;61473;50.834;4.552;2022-09-01T01:28:23;6.68;;;2.90;;
73251;SDS011;61473;50.834;4.552;2022-09-01T01:30:59;3.85;;;3.45;;
73251;SDS011;61473;50.834;4.552;2022-09-01T01:33:34;4.53;;;2.65;;
73251;SDS011;61473;50.834;4.552;2022-09-01T01:38:32;2.65;;;2.22;;
73251;SDS011;61473;50.834;4.552;2022-09-01T01:40:59;5.78;;;2.33;;
73251;SDS011;61473;50.834;4.552;2022-09-01T01:43:26;6.18;;;2.88;;
73251;SDS011;61473;50.834;4.552;2022-09-01T01:45:53;8.05;;;2.72;;
73251;SDS011;61473;50.834;4.552;2022-09-01T01:48:22;5.43;;;2.92;;
73251;SDS011;61473;50.834;4.552;2022-09-01T01:50:49;7.05;;;2.97;;
73251;SDS011;61473;50.834;4.552;2022-09-01T01:53:16;4.55;;;2.50;;
73251;SDS011;61473;50.834;4.552;2022-09-01T01:55:43;4.38;;;2.47;;
73251;SDS011;61473;50.834;4.552;2022-09-01T01:58:13;5.28;;;2.75;;
73251;SDS011;61473;50.834;4.552;2022-09-01T02:00:40;5.15;;;2.80;;
73251;SDS011;61473;50.834;4.552;2022-09-01T02:03:10;6.30;;;2.75;;
73251;SDS011;61473;50.834;4.552;2022-09-01T02:05:43;5.78;;;2.70;;
73251;SDS011;61473;50.834;4.552;2022-09-01T02:08:10;10.52;;;3.17;;
73251;SDS011;61473;50.834;4.552;2022-09-01T02:10:41;8.27;;;3.28;;
73251;SDS011;61473;50.834;4.552;2022-09-01T02:13:09;4.78;;;3.20;;
73251;SDS011;61473;50.834;4.552;2022-09-01T02:15:40;5.00;;;2.83;;
73251;SDS011;61473;50.834;4.552;2022-09-01T02:18:21;4.32;;;2.83;;
73251;SDS011;61473;50.834;4.552;2022-09-01T02:20:52;6.45;;;3.30;;
73251;SDS011;61473;50.834;4.552;2022-09-01T02:23:19;8.85;;;4.00;;
73251;SDS011;61473;50.834;4.552;2022-09-01T02:25:51;10.13;;;3.67;;
73251;SDS011;61473;50.834;4.552;2022-09-01T02:28:19;6.35;;;3.75;;
73251;SDS011;61473;50.834;4.552;2022-09-01T02:30:48;6.45;;;3.75;;
73251;SDS011;61473;50.834;4.552;2022-09-01T02:33:17;8.25;;;4.30;;
73251;SDS011;61473;50.834;4.552;2022-09-01T02:35:44;7.03;;;4.47;;
73251;SDS011;61473;50.834;4.552;2022-09-01T02:38:11;7.38;;;3.58;;
73251;SDS011;61473;50.834;4.552;2022-09-01T02:40:38;6.75;;;3.72;;
73251;SDS011;61473;50.834;4.552;2022-09-01T02:43:09;6.63;;;4.20;;
73251;SDS011;61473;50.834;4.552;2022-09-01T02:45:40;9.10;;;4.55;;
73251;SDS011;61473;50.834;4.552;2022-09-01T02:48:08;7.57;;;4.90;;
73251;SDS011;61473;50.834;4.552;2022-09-01T02:50:39;7.75;;;4.97;;
73251;SDS011;61473;50.834;4.552;2022-09-01T02:53:06;11.55;;;4.72;;
73251;SDS011;61473;50.834;4.552;2022-09-01T02:55:40;7.43;;;5.10;;
73251;SDS011;61473;50.834;4.552;2022-09-01T02:58:06;7.20;;;5.00;;
73251;SDS011;61473;50.834;4.552;2022-09-01T03:00:40;6.32;;;4.53;;
73251;SDS011;61473;50.834;4.552;2022-09-01T03:03:09;7.65;;;5.03;;
73251;SDS011;61473;50.834;4.552;2022-09-01T03:05:36;7.43;;;4.85;;
73251;SDS011;61473;50.834;4.552;2022-09-01T03:08:04;6.95;;;4.63;;
73251;SDS011;61473;50.834;4.552;2022-09-01T03:10:33;6.28;;;4.60;;
73251;SDS011;61473;50.834;4.552;2022-09-01T03:13:11;8.70;;;4.82;;
73251;SDS011;61473;50.834;4.552;2022-09-01T03:15:39;7.78;;;4.40;;
73251;SDS011;61473;50.834;4.552;2022-09-01T03:18:05;6.22;;;4.38;;
73251;SDS011;61473;50.834;4.552;2022-09-01T03:20:33;8.70;;;5.25;;
73251;SDS011;61473;50.834;4.552;2022-09-01T03:23:00;9.50;;;4.70;;
73251;SDS011;61473;50.834;4.552;2022-09-01T03:25:32;8.73;;;4.53;;
73251;SDS011;61473;50.834;4.552;2022-09-01T03:27:58;7.13;;;5.35;;
73251;SDS011;61473;50.834;4.552;2022-09-01T03:30:30;8.02;;;5.30;;
73251;SDS011;61473;50.834;4.552;2022-09-01T03:32:59;7.30;;;4.85;;
73251;SDS011;61473;50.834;4.552;2022-09-01T03:35:26;9.23;;;4.70;;
73251;SDS011;61473;50.834;4.552;2022-09-01T03:37:56;9.73;;;4.13;;
73251;SDS011;61473;50.834;4.552;2022-09-01T03:40:23;6.53;;;4.30;;
73251;SDS011;61473;50.834;4.552;2022-09-01T03:42:51;7.72;;;4.60;;
73251;SDS011;61473;50.834;4.552;2022-09-01T03:45:20;14.82;;;5.03;;
73251;SDS011;61473;50.834;4.552;2022-09-01T03:47:46;6.85;;;4.95;;
73251;SDS011;61473;50.834;4.552;2022-09-01T03:50:13;6.82;;;4.90;;
73251;SDS011;61473;50.834;4.552;2022-09-01T03:52:47;11.88;;;5.20;;
73251;SDS011;61473;50.834;4.552;2022-09-01T03:55:14;9.63;;;5.15;;
73251;SDS011;61473;50.834;4.552;2022-09-01T03:57:50;6.72;;;4.55;;
73251;SDS011;61473;50.834;4.552;2022-09-01T04:00:17;9.25;;;5.10;;
73251;SDS011;61473;50.834;4.552;2022-09-01T04:02:47;10.88;;;5.45;;
73251;SDS011;61473;50.834;4.552;2022-09-01T04:05:17;7.70;;;5.60;;
73251;SDS011;61473;50.834;4.552;2022-09-01T04:07:49;8.10;;;4.93;;
73251;SDS011;61473;50.834;4.552;2022-09-01T04:10:16;12.13;;;4.90;;
73251;SDS011;61473;50.834;4.552;2022-09-01T04:12:43;9.70;;;5.05;;
73251;SDS011;61473;50.834;4.552;2022-09-01T04:15:09;9.75;;;5.15;;
73251;SDS011;61473;50.834;4.552;2022-09-01T04:17:35;9.32;;;5.35;;
73251;SDS011;61473;50.834;4.552;2022-09-01T04:20:20;15.03;;;5.10;;
73251;SDS011;61473;50.834;4.552;2022-09-01T04:22:46;7.53;;;5.30;;
73251;SDS011;61473;50.834;4.552;2022-09-01T04:25:14;9.93;;;5.47;;
73251;SDS011;61473;50.834;4.552;2022-09-01T04:27:41;11.73;;;5.53;;
73251;SDS011;61473;50.834;4.552;2022-09-01T04:30:08;10.18;;;4.45;;
73251;SDS011;61473;50.834;4.552;2022-09-01T04:32:37;8.00;;;4.97;;
73251;SDS011;61473;50.834;4.552;2022-09-01T04:35:04;7.32;;;4.40;;
73251;SDS011;61473;50.834;4.552;2022-09-01T04:37:31;7.88;;;4.90;;
73251;SDS011;61473;50.834;4.552;2022-09-01T04:40:00;9.02;;;4.50;;
73251;SDS011;61473;50.834;4.552;2022-09-01T04:42:28;10.80;;;5.25;;
73251;SDS011;61473;50.834;4.552;2022-09-01T04:44:56;7.78;;;4.28;;
73251;SDS011;61473;50.834;4.552;2022-09-01T04:47:24;10.43;;;4.95;;
73251;SDS011;61473;50.834;4.552;2022-09-01T04:49:58;8.20;;;4.57;;
73251;SDS011;61473;50.834;4.552;2022-09-01T04:52:27;6.88;;;4.72;;
73251;SDS011;61473;50.834;4.552;2022-09-01T04:54:53;10.13;;;4.57;;
73251;SDS011;61473;50.834;4.552;2022-09-01T04:57:19;7.60;;;4.47;;
73251;SDS011;61473;50.834;4.552;2022-09-01T04:59:45;7.10;;;5.22;;
73251;SDS011;61473;50.834;4.552;2022-09-01T05:02:11;11.90;;;4.65;;
73251;SDS011;61473;50.834;4.552;2022-09-01T05:04:37;6.80;;;4.00;;
73251;SDS011;61473;50.834;4.552;2022-09-01T05:07:05;9.55;;;5.18;;
73251;SDS011;61473;50.834;4.552;2022-09-01T05:09:33;9.88;;;5.60;;
73251;SDS011;61473;50.834;4.552;2022-09-01T05:12:01;7.65;;;5.03;;
73251;SDS011;61473;50.834;4.552;2022-09-01T05:14:38;9.68;;;4.90;;
73251;SDS011;61473;50.834;4.552;2022-09-01T05:17:06;6.78;;;5.00;;
73251;SDS011;61473;50.834;4.552;2022-09-01T05:19:38;9.13;;;4.78;;
73251;SDS011;61473;50.834;4.552;2022-09-01T05:22:07;9.13;;;5.05;;
73251;SDS011;61473;50.834;4.552;2022-09-01T05:24:34;9.13;;;5.13;;
73251;SDS011;61473;50.834;4.552;2022-09-01T05:27:00;5.65;;;3.63;;
73251;SDS011;61473;50.834;4.552;2022-09-01T05:29:28;6.72;;;4.20;;
73251;SDS011;61473;50.834;4.552;2022-09-01T05:31:54;7.13;;;4.30;;
73251;SDS011;61473;50.834;4.552;2022-09-01T05:34:21;6.25;;;4.40;;
73251;SDS011;61473;50.834;4.552;2022-09-01T05:36:51;8.27;;;4.03;;
73251;SDS011;61473;50.834;4.552;2022-09-01T05:39:18;24.10;;;5.75;;
73251;SDS011;61473;50.834;4.552;2022-09-01T05:41:45;20.80;;;6.50;;
73251;SDS011;61473;50.834;4.552;2022-09-01T05:44:12;11.32;;;5.10;;
73251;SDS011;61473;50.834;4.552;2022-09-01T05:46:41;11.43;;;4.97;;
73251;SDS011;61473;50.834;4.552;2022-09-01T05:49:08;13.48;;;5.20;;
73251;SDS011;61473;50.834;4.552;2022-09-01T05:51:40;9.93;;;5.57;;
73251;SDS011;61473;50.834;4.552;2022-09-01T05:54:08;7.78;;;4.75;;
73251;SDS011;61473;50.834;4.552;2022-09-01T05:56:36;8.23;;;4.00;;
73251;SDS011;61473;50.834;4.552;2022-09-01T05:59:04;9.73;;;4.97;;
73251;SDS011;61473;50.834;4.552;2022-09-01T06:01:30;12.13;;;4.85;;
73251;SDS011;61473;50.834;4.552;2022-09-01T06:03:57;9.88;;;4.57;;
73251;SDS011;61473;50.834;4.552;2022-09-01T06:06:29;8.27;;;5.13;;
73251;SDS011;61473;50.834;4.552;2022-09-01T06:09:02;8.10;;;5.15;;
73251;SDS011;61473;50.834;4.552;2022-09-01T06:11:29;8.95;;;4.93;;
73251;SDS011;61473;50.834;4.552;2022-09-01T06:13:57;7.53;;;5.03;;
73251;SDS011;61473;50.834;4.552;2022-09-01T06:16:24;8.10;;;4.60;;
73251;SDS011;61473;50.834;4.552;2022-09-01T06:18:52;8.45;;;5.47;;
73251;SDS011;61473;50.834;4.552;2022-09-01T06:21:20;7.78;;;4.72;;
73251;SDS011;61473;50.834;4.552;2022-09-01T06:23:49;9.23;;;4.53;;
73251;SDS011;61473;50.834;4.552;2022-09-01T06:26:19;7.57;;;5.00;;
73251;SDS011;61473;50.834;4.552;2022-09-01T06:28:48;10.55;;;5.38;;
73251;SDS011;61473;50.834;4.552;2022-09-01T06:31:26;7.22;;;4.93;;
73251;SDS011;61473;50.834;4.552;2022-09-01T06:33:58;9.07;;;5.40;;
73251;SDS011;61473;50.834;4.552;2022-09-01T06:36:26;8.65;;;4.10;;
73251;SDS011;61473;50.834;4.552;2022-09-01T06:38:53;8.82;;;4.60;;
73251;SDS011;61473;50.834;4.552;2022-09-01T06:41:20;6.55;;;3.80;;
73251;SDS011;61473;50.834;4.552;2022-09-01T06:43:48;11.02;;;4.65;;
73251;SDS011;61473;50.834;4.552;2022-09-01T06:46:15;8.35;;;4.25;;
73251;SDS011;61473;50.834;4.552;2022-09-01T06:48:42;4.95;;;3.30;;
73251;SDS011;61473;50.834;4.552;2022-09-01T06:51:12;7.53;;;3.55;;
73251;SDS011;61473;50.834;4.552;2022-09-01T06:53:40;4.68;;;3.22;;
73251;SDS011;61473;50.834;4.552;2022-09-01T06:56:06;9.02;;;4.22;;
73251;SDS011;61473;50.834;4.552;2022-09-01T06:58:37;8.52;;;2.80;;
73251;SDS011;61473;50.834;4.552;2022-09-01T07:01:11;8.85;;;4.53;;
73251;SDS011;61473;50.834;4.552;2022-09-01T07:03:40;4.88;;;3.90;;
73251;SDS011;61473;50.834;4.552;2022-09-01T07:06:06;7.35;;;3.15;;
73251;SDS011;61473;50.834;4.552;2022-09-01T07:08:34;8.30;;;3.40;;
73251;SDS011;61473;50.834;4.552;2022-09-01T07:11:03;6.78;;;3.15;;
73251;SDS011;61473;50.834;4.552;2022-09-01T07:13:31;10.10;;;3.00;;
73251;SDS011;61473;50.834;4.552;2022-09-01T07:15:59;4.40;;;2.70;;
73251;SDS011;61473;50.834;4.552;2022-09-01T07:18:29;5.35;;;2.45;;
73251;SDS011;61473;50.834;4.552;2022-09-01T07:20:56;4.70;;;2.53;;
73251;SDS011;61473;50.834;4.552;2022-09-01T07:23:22;5.80;;;2.90;;
73251;SDS011;61473;50.834;4.552;2022-09-01T07:25:49;5.00;;;3.20;;
73251;SDS011;61473;50.834;4.552;2022-09-01T07:28:19;7.05;;;2.97;;
73251;SDS011;61473;50.834;4.552;2022-09-01T07:30:49;3.53;;;2.50;;
73251;SDS011;61473;50.834;4.552;2022-09-01T07:33:17;4.93;;;3.08;;
73251;SDS011;61473;50.834;4.552;2022-09-01T07:35:48;7.15;;;3.17;;
73251;SDS011;61473;50.834;4.552;2022-09-01T07:38:15;7.53;;;2.65;;
73251;SDS011;61473;50.834;4.552;2022-09-01T07:40:44;6.28;;;2.88;;
73251;SDS011;61473;50.834;4.552;2022-09-01T07:43:15;6.82;;;2.47;;
73251;SDS011;61473;50.834;4.552;2022-09-01T07:45:46;8.95;;;2.95;;
73251;SDS011;61473;50.834;4.552;2022-09-01T07:48:13;3.30;;;2.72;;
73251;SDS011;61473;50.834;4.552;2022-09-01T07:50:44;4.13;;;2.15;;
73251;SDS011;61473;50.834;4.552;2022-09-01T07:53:15;3.67;;;2.40;;
73251;SDS011;61473;50.834;4.552;2022-09-01T07:55:43;7.97;;;2.50;;
73251;SDS011;61473;50.834;4.552;2022-09-01T07:58:13;3.75;;;2.63;;
73251;SDS011;61473;50.834;4.552;2022-09-01T08:00:39;3.30;;;2.17;;
73251;SDS011;61473;50.834;4.552;2022-09-01T08:03:09;5.68;;;1.95;;
73251;SDS011;61473;50.834;4.552;2022-09-01T08:05:34;5.97;;;2.38;;
73251;SDS011;61473;50.834;4.552;2022-09-01T08:08:00;4.50;;;2.63;;
73251;SDS011;61473;50.834;4.552;2022-09-01T08:10:26;4.70;;;2.35;;
73251;SDS011;61473;50.834;4.552;2022-09-01T08:12:52;4.15;;;2.35;;
73251;SDS011;61473;50.834;4.552;2022-09-01T08:15:18;4.10;;;2.25;;
73251;SDS011;61473;50.834;4.552;2022-09-01T08:17:44;2.83;;;1.60;;
73251;SDS011;61473;50.834;4.552;2022-09-01T08:20:10;3.05;;;2.42;;
73251;SDS011;61473;50.834;4.552;2022-09-01T08:22:36;6.57;;;1.98;;
73251;SDS011;61473;50.834;4.552;2022-09-01T08:25:04;2.50;;;2.00;;
73251;SDS011;61473;50.834;4.552;2022-09-01T08:27:31;4.53;;;2.30;;
73251;SDS011;61473;50.834;4.552;2022-09-01T08:30:00;4.00;;;2.05;;
73251;SDS011;61473;50.834;4.552;2022-09-01T08:32:31;10.75;;;2.72;;
73251;SDS011;61473;50.834;4.552;2022-09-01T08:34:57;2.80;;;1.90;;
73251;SDS011;61473;50.834;4.552;2022-09-01T08:37:23;2.72;;;2.05;;
73251;SDS011;61473;50.834;4.552;2022-09-01T08:39:49;5.93;;;2.20;;
73251;SDS011;61473;50.834;4.552;2022-09-01T08:47:22;3.03;;;1.83;;
73251;SDS011;61473;50.834;4.552;2022-09-01T08:49:48;4.32;;;2.28;;
73251;SDS011;61473;50.834;4.552;2022-09-01T08:57:32;3.40;;;1.70;;
73251;SDS011;61473;50.834;4.552;2022-09-01T08:59:58;2.75;;;2.00;;
73251;SDS011;61473;50.834;4.552;2022-09-01T09:14:52;1.80;;;1.40;;
73251;SDS011;61473;50.834;4.552;2022-09-01T09:16:58;6.72;;;2.80;;
73251;SDS011;61473;50.834;4.552;2022-09-01T09:19:28;4.60;;;2.38;;
73251;SDS011;61473;50.834;4.552;2022-09-01T09:21:54;5.47;;;2.40;;
73251;SDS011;61473;50.834;4.552;2022-09-01T09:24:30;3.28;;;1.67;;
73251;SDS011;61473;50.834;4.552;2022-09-01T09:30:02;2.38;;;2.00;;
73251;SDS011;61473;50.834;4.552;2022-09-01T09:37:45;3.60;;;1.83;;
73251;SDS011;61473;50.834;4.552;2022-09-01T09:40:15;2.10;;;1.80;;
73251;SDS011;61473;50.834;4.552;2022-09-01T09:47:53;2.72;;;1.80;;
73251;SDS011;61473;50.834;4.552;2022-09-01T09:52:48;3.47;;;1.77;;
73251;SDS011;61473;50.834;4.552;2022-09-01T09:55:18;2.15;;;1.60;;
73251;SDS011;61473;50.834;4.552;2022-09-01T09:57:45;2.85;;;1.98;;
73251;SDS011;61473;50.834;4.552;2022-09-01T10:00:24;6.80;;;1.92;;
73251;SDS011;61473;50.834;4.552;2022-09-01T10:02:54;1.58;;;1.48;;
73251;SDS011;61473;50.834;4.552;2022-09-01T10:05:26;2.63;;;1.42;;
73251;SDS011;61473;50.834;4.552;2022-09-01T10:08:11;1.77;;;1.60;;
73251;SDS011;61473;50.834;4.552;2022-09-01T10:10:41;4.25;;;2.45;;
73251;SDS011;61473;50.834;4.552;2022-09-01T10:13:17;3.17;;;1.67;;
73251;SDS011;61473;50.834;4.552;2022-09-01T10:15:55;2.95;;;1.75;;
73251;SDS011;61473;50.834;4.552;2022-09-01T10:18:37;2.72;;;1.60;;
73251;SDS011;61473;50.834;4.552;2022-09-01T10:21:09;2.72;;;1.80;;
73251;SDS011;61473;50.834;4.552;2022-09-01T10:23:39;2.30;;;1.73;;
73251;SDS011;61473;50.834;4.552;2022-09-01T10:26:10;3.67;;;1.70;;
73251;SDS011;61473;50.834;4.552;2022-09-01T10:31:19;2.83;;;1.88;;
73251;SDS011;61473;50.834;4.552;2022-09-01T10:33:46;2.20;;;1.50;;
73251;SDS011;61473;50.834;4.552;2022-09-01T10:36:13;5.28;;;1.48;;
73251;SDS011;61473;50.834;4.552;2022-09-01T10:38:40;1.70;;;1.52;;
73251;SDS011;61473;50.834;4.552;2022-09-01T10:41:07;2.53;;;1.33;;
73251;SDS011;61473;50.834;4.552;2022-09-01T10:43:40;3.80;;;1.77;;
73251;SDS011;61473;50.834;4.552;2022-09-01T10:48:49;4.05;;;1.17;;
73251;SDS011;61473;50.834;4.552;2022-09-01T10:53:49;1.48;;;1.13;;
73251;SDS011;61473;50.834;4.552;2022-09-01T10:56:17;4.68;;;1.20;;
73251;SDS011;61473;50.834;4.552;2022-09-01T10:58:46;3.47;;;1.52;;
73251;SDS011;61473;50.834;4.552;2022-09-01T11:04:09;4.05;;;1.70;;
73251;SDS011;61473;50.834;4.552;2022-09-01T11:14:52;5.07;;;3.00;;
73251;SDS011;61473;50.834;4.552;2022-09-01T11:17:27;10.80;;;3.38;;
73251;SDS011;61473;50.834;4.552;2022-09-01T11:20:09;10.18;;;3.72;;
73251;SDS011;61473;50.834;4.552;2022-09-01T11:22:45;6.50;;;3.42;;
73251;SDS011;61473;50.834;4.552;2022-09-01T11:28:37;8.43;;;3.45;;
73251;SDS011;61473;50.834;4.552;2022-09-01T11:36:22;9.00;;;3.45;;
73251;SDS011;61473;50.834;4.552;2022-09-01T11:41:50;13.60;;;3.17;;
73251;SDS011;61473;50.834;4.552;2022-09-01T11:44:27;18.10;;;4.75;;
73251;SDS011;61473;50.834;4.552;2022-09-01T11:47:01;10.60;;;3.67;;
73251;SDS011;61473;50.834;4.552;2022-09-01T11:49:38;13.50;;;3.42;;
73251;SDS011;61473;50.834;4.552;2022-09-01T11:52:13;7.78;;;3.22;;
73251;SDS011;61473;50.834;4.552;2022-09-01T11:54:41;5.93;;;3.08;;
73251;SDS011;61473;50.834;4.552;2022-09-01T11:57:21;6.65;;;3.78;;
73251;SDS011;61473;50.834;4.552;2022-09-01T11:59:49;7.00;;;3.05;;
73251;SDS011;61473;50.834;4.552;2022-09-01T12:02:19;6.32;;;3.35;;
73251;SDS011;61473;50.834;4.552;2022-09-01T12:04:49;7.40;;;3.63;;
73251;SDS011;61473;50.834;4.552;2022-09-01T12:07:36;7.57;;;3.33;;
73251;SDS011;61473;50.834;4.552;2022-09-01T12:10:03;13.77;;;3.42;;
73251;SDS011;61473;50.834;4.552;2022-09-01T12:12:37;28.55;;;4.97;;
73251;SDS011;61473;50.834;4.552;2022-09-01T12:15:20;9.15;;;2.70;;
73251;SDS011;61473;50.834;4.552;2022-09-01T12:17:48;12.80;;;3.05;;
73251;SDS011;61473;50.834;4.552;2022-09-01T12:22:49;6.20;;;2.83;;
73251;SDS011;61473;50.834;4.552;2022-09-01T12:25:26;13.07;;;2.88;;
73251;SDS011;61473;50.834;4.552;2022-09-01T12:27:54;13.75;;;3.72;;
73251;SDS011;61473;50.834;4.552;2022-09-01T12:30:21;10.52;;;2.90;;
73251;SDS011;61473;50.834;4.552;2022-09-01T12:32:48;3.42;;;2.58;;
73251;SDS011;61473;50.834;4.552;2022-09-01T12:35:22;4.28;;;2.65;;
73251;SDS011;61473;50.834;4.552;2022-09-01T12:37:49;5.18;;;3.08;;
73251;SDS011;61473;50.834;4.552;2022-09-01T12:40:33;4.45;;;2.75;;
73251;SDS011;61473;50.834;4.552;2022-09-01T12:43:00;6.07;;;2.13;;
73251;SDS011;61473;50.834;4.552;2022-09-01T12:48:31;3.20;;;2.03;;
73251;SDS011;61473;50.834;4.552;2022-09-01T12:51:03;5.40;;;1.73;;
73251;SDS011;61473;50.834;4.552;2022-09-01T12:53:54;2.55;;;2.03;;
73251;SDS011;61473;50.834;4.552;2022-09-01T12:59:05;1.80;;;1.52;;
73251;SDS011;61473;50.834;4.552;2022-09-01T13:01:37;3.33;;;1.63;;
73251;SDS011;61473;50.834;4.552;2022-09-01T13:04:05;2.70;;;2.00;;
73251;SDS011;61473;50.834;4.552;2022-09-01T13:06:34;2.53;;;1.75;;
73251;SDS011;61473;50.834;4.552;2022-09-01T13:08:59;2.78;;;1.95;;
73251;SDS011;61473;50.834;4.552;2022-09-01T13:11:25;4.20;;;1.88;;
73251;SDS011;61473;50.834;4.552;2022-09-01T13:13:51;1.85;;;1.58;;
73251;SDS011;61473;50.834;4.552;2022-09-01T13:16:16;2.95;;;1.40;;
73251;SDS011;61473;50.834;4.552;2022-09-01T13:18:42;3.55;;;2.28;;
73251;SDS011;61473;50.834;4.552;2022-09-01T13:21:08;2.25;;;1.65;;
73251;SDS011;61473;50.834;4.552;2022-09-01T13:23:35;2.78;;;1.48;;
73251;SDS011;61473;50.834;4.552;2022-09-01T13:26:02;2.08;;;1.42;;
73251;SDS011;61473;50.834;4.552;2022-09-01T13:28:29;2.38;;;1.80;;
73251;SDS011;61473;50.834;4.552;2022-09-01T13:31:00;1.80;;;1.58;;
73251;SDS011;61473;50.834;4.552;2022-09-01T13:33:29;1.83;;;1.73;;
73251;SDS011;61473;50.834;4.552;2022-09-01T13:35:57;2.63;;;1.50;;
73251;SDS011;61473;50.834;4.552;2022-09-01T13:38:23;2.60;;;1.80;;
73251;SDS011;61473;50.834;4.552;2022-09-01T13:40:49;6.70;;;1.70;;
73251;SDS011;61473;50.834;4.552;2022-09-01T13:43:16;1.88;;;1.48;;
73251;SDS011;61473;50.834;4.552;2022-09-01T13:45:43;2.28;;;1.33;;
73251;SDS011;61473;50.834;4.552;2022-09-01T13:48:10;3.90;;;1.88;;
73251;SDS011;61473;50.834;4.552;2022-09-01T13:50:36;1.55;;;1.45;;
73251;SDS011;61473;50.834;4.552;2022-09-01T13:53:03;1.40;;;1.30;;
73251;SDS011;61473;50.834;4.552;2022-09-01T13:55:30;4.60;;;1.70;;
73251;SDS011;61473;50.834;4.552;2022-09-01T13:57:58;2.35;;;1.30;;
73251;SDS011;61473;50.834;4.552;2022-09-01T14:00:26;2.80;;;1.45;;
73251;SDS011;61473;50.834;4.552;2022-09-01T14:02:55;3.25;;;1.42;;
73251;SDS011;61473;50.834;4.552;2022-09-01T14:05:26;2.28;;;1.55;;
73251;SDS011;61473;50.834;4.552;2022-09-01T14:07:58;3.47;;;1.73;;
73251;SDS011;61473;50.834;4.552;2022-09-01T14:10:25;3.08;;;1.50;;
73251;SDS011;61473;50.834;4.552;2022-09-01T14:12:52;1.75;;;1.33;;
73251;SDS011;61473;50.834;4.552;2022-09-01T14:15:19;3.80;;;1.50;;
73251;SDS011;61473;50.834;4.552;2022-09-01T14:17:46;3.15;;;1.40;;
73251;SDS011;61473;50.834;4.552;2022-09-01T14:20:15;2.80;;;1.20;;
73251;SDS011;61473;50.834;4.552;2022-09-01T14:22:43;1.73;;;1.33;;
73251;SDS011;61473;50.834;4.552;2022-09-01T14:25:10;3.83;;;1.13;;
73251;SDS011;61473;50.834;4.552;2022-09-01T14:27:36;1.52;;;1.40;;
73251;SDS011;61473;50.834;4.552;2022-09-01T14:30:04;2.15;;;1.60;;
73251;SDS011;61473;50.834;4.552;2022-09-01T14:32:31;2.65;;;1.27;;
73251;SDS011;61473;50.834;4.552;2022-09-01T14:34:57;1.77;;;1.30;;
73251;SDS011;61473;50.834;4.552;2022-09-01T14:37:24;3.30;;;1.48;;
73251;SDS011;61473;50.834;4.552;2022-09-01T14:39:54;2.25;;;1.30;;
73251;SDS011;61473;50.834;4.552;2022-09-01T14:42:22;2.15;;;1.27;;
73251;SDS011;61473;50.834;4.552;2022-09-01T14:44:50;3.72;;;1.30;;
73251;SDS011;61473;50.834;4.552;2022-09-01T14:47:16;2.03;;;1.13;;
73251;SDS011;61473;50.834;4.552;2022-09-01T14:49:43;9.27;;;1.63;;
73251;SDS011;61473;50.834;4.552;2022-09-01T14:52:09;4.00;;;1.25;;
73251;SDS011;61473;50.834;4.552;2022-09-01T14:54:36;1.50;;;1.13;;
73251;SDS011;61473;50.834;4.552;2022-09-01T14:57:03;2.17;;;1.35;;
73251;SDS011;61473;50.834;4.552;2022-09-01T14:59:30;5.05;;;1.55;;
73251;SDS011;61473;50.834;4.552;2022-09-01T15:01:56;2.50;;;1.52;;
73251;SDS011;61473;50.834;4.552;2022-09-01T15:04:22;3.17;;;1.25;;
73251;SDS011;61473;50.834;4.552;2022-09-01T15:06:48;1.88;;;1.30;;
73251;SDS011;61473;50.834;4.552;2022-09-01T15:09:13;2.30;;;1.60;;
73251;SDS011;61473;50.834;4.552;2022-09-01T15:11:40;2.00;;;1.33;;
73251;SDS011;61473;50.834;4.552;2022-09-01T15:14:07;2.17;;;1.30;;
73251;SDS011;61473;50.834;4.552;2022-09-01T15:16:36;2.55;;;1.40;;
73251;SDS011;61473;50.834;4.552;2022-09-01T15:19:06;3.42;;;1.50;;
73251;SDS011;61473;50.834;4.552;2022-09-01T15:21:33;2.67;;;1.40;;
73251;SDS011;61473;50.834;4.552;2022-09-01T15:24:00;1.90;;;1.15;;
73251;SDS011;61473;50.834;4.552;2022-09-01T15:26:27;5.88;;;1.15;;
73251;SDS011;61473;50.834;4.552;2022-09-01T15:28:53;3.72;;;1.10;;
73251;SDS011;61473;50.834;4.552;2022-09-01T15:31:21;1.25;;;1.00;;
73251;SDS011;61473;50.834;4.552;2022-09-01T15:33:48;2.20;;;1.55;;
73251;SDS011;61473;50.834;4.552;2022-09-01T15:36:16;2.45;;;1.35;;
73251;SDS011;61473;50.834;4.552;2022-09-01T15:38:43;2.22;;;1.20;;
73251;SDS011;61473;50.834;4.552;2022-09-01T15:41:20;3.42;;;0.90;;
73251;SDS011;61473;50.834;4.552;2022-09-01T15:43:48;4.55;;;1.20;;
73251;SDS011;61473;50.834;4.552;2022-09-01T15:46:14;1.67;;;1.17;;
73251;SDS011;61473;50.834;4.552;2022-09-01T15:48:40;2.17;;;1.08;;
73251;SDS011;61473;50.834;4.552;2022-09-01T15:53:46;3.85;;;1.30;;
73251;SDS011;61473;50.834;4.552;2022-09-01T15:56:16;4.97;;;1.42;;
73251;SDS011;61473;50.834;4.552;2022-09-01T15:58:43;3.22;;;1.33;;
73251;SDS011;61473;50.834;4.552;2022-09-01T16:01:09;3.90;;;1.00;;
73251;SDS011;61473;50.834;4.552;2022-09-01T16:03:34;2.33;;;0.93;;
73251;SDS011;61473;50.834;4.552;2022-09-01T16:06:00;3.05;;;1.42;;
73251;SDS011;61473;50.834;4.552;2022-09-01T16:08:26;3.45;;;1.27;;
73251;SDS011;61473;50.834;4.552;2022-09-01T16:10:52;2.45;;;1.25;;
73251;SDS011;61473;50.834;4.552;2022-09-01T16:13:19;1.52;;;1.40;;
73251;SDS011;61473;50.834;4.552;2022-09-01T16:16:04;1.33;;;0.98;;
73251;SDS011;61473;50.834;4.552;2022-09-01T16:18:39;1.73;;;1.10;;
73251;SDS011;61473;50.834;4.552;2022-09-01T16:23:49;3.45;;;1.10;;
73251;SDS011;61473;50.834;4.552;2022-09-01T16:26:17;2.40;;;1.10;;